Perth and Kinross, United Kingdom

6:38 PM BST on July 30, 2016 (GMT +0100)
Glendevon, Ochill hills. | | Change Station

Elev 805 ft 56.23 °N, 3.68 °W | Updated 8 minutes ago

Mostly Cloudy
Mostly Cloudy
61.5 °F
Feels Like 61.5 °F
N
6.0
Wind Variable Wind from WNW
Gusts 9.0 mph

Today
High -- | Low -- °F
--% Chance of Precip.
Yesterday
High -- | Low -- °F
Precip. -- in
Pressure 29.86 in
Visibility 6.2 miles
Clouds Mostly Cloudy 3700 ft
Dew Point 45 °F
Humidity 55%
Rainfall 0.00 in
Snow Depth Not available.
5:14 AM 9:26 PM
Waning Crescent, 12% visible
METAR EGPH 301720Z AUTO 27008KT 240V310 9999 BKN037 16/10 Q1011
Pressure 29.86 in
Visibility 6.2 miles
Clouds Mostly Cloudy 3700 ft
Dew Point 45 °F
Humidity 55%
Rainfall 0.00 in
Snow Depth Not available.
5:14 AM 9:26 PM
Waning Crescent, 12% visible
METAR EGPH 301720Z AUTO 27008KT 240V310 9999 BKN037 16/10 Q1011

10-Day Weather Forecast

×

Almanac

Astronomy

Jul. 30, 2016 Rise Set
Actual Time
Civil Twilight
Nautical Twilight
Astronomical Twilight
Moon
Length of Visible Light
Length of Day
Tomorrow will be .
, % of the Moon is Illuminated

Today's Extremes

Country Highs Country Lows

Community

WunderPhotos

Upload Photos

1,928,600 photos uploaded!

WunderBlog® & News

Nearby

Air Quality

  Air Quality AQ Index Pollutant
Not available.

Snow Depth

Station Depth Elevation

Earthquake Activity

City Distance Mag. Time & Date
Minimum magnitude displayed is 2.5.

Coastal Water Temperatures

Place Temperature

Stations

Nearby Weather Stations

Station Location Temp. Windchill Dew Point Humidity Wind Precip. Elev Updated Type